TAF Nordic - 19 Feb 2018 - 0152 UTC - RocketRoute WX - rrwx.com
EKYT 182319Z 1900/1924 20006KT 5000 BKN015 TEMPO 1900/1918 1500 -RASN BR BKN003 BECMG 1907/1910 VRB05KT BECMG 1915/1918 06012KT TEMPO 1918/1924 2500 -SN EKAH 182314Z 1900/1924 20005KT 9999 FEW030 BECMG 1903/1905 4000 BR BKN008 TEMPO 1905/1924 1200 -RA BR BKN002 EKBI 182314Z 1900/1924 21006KT 9000 BKN025 BECMG 1900/1903 4000 BR BKN008 TEMPO 1903/1924 1200 -RA BR BKN002 EKRN   EKEB   EKKA 182319Z 1900/1924 20006KT 5000 BKN015 TEMPO 1900/1924 1500 -RASN BR BKN003 BECMG 1911/1914 VRB03KT BECMG 1915/1918 04006KT EKCH 182314Z 1900/1924 22008KT 9999 FEW030 BECMG 1910/1912 BKN010 TEMPO 1912/1921 BKN015 BECMG 1921/1923 SCT020 EKOD   EKRK 182320Z 1900/1909 19003KT 9999 FEW030 TEMPO 1903/1909 3000 BR EKSP 182319Z 1900/1924 20005KT 9999 SCT015 TEMPO 1900/1903 4000 BR TEMPO 1903/1905 4000 BR BKN012 TEMPO 1905/1910 1800 BR -RA BKN004 TEMPO 1910/1920 4000 BR BKN008 TEMPO 1920/1924 1800 -RASN BKN004 EKVD   ESTA   ESNZ   ESGP   ESGG 182330Z 1900/1924 19010KT 5000 -SN SCT003 BKN010 TEMPO 1900/1902 1400 SNRA BR OVC003 PROB40 1902/1908 0700 FZFG VV002 BECMG 1903/1905 VRB02KT TEMPO 1908/1916 3000 RASN OVC006 BECMG 1916/1918 08010KT SCT010 BKN017 PROB40 1918/1924 1200 BR BKN004 ESMT   ESMQ   ESNQ   ESPA   ESMS 182315Z 1900/1924 22008KT 9999 SCT035 PROB40 1902/1905 0500 FZFG VV002 BECMG 1905/1907 2000 BR BKN005 TEMPO 1907/1924 5000 NSW BKN012 ESSL   ESSA 182330Z 1900/1924 VRB02KT 6000 -SN SCT005 BKN015 PROB40 1900/1906 1400 BKN004 BECMG 1905/1908 06012KT ESSB   ESKN 182330Z 1900/1924 24003KT 9999 -SN BKN035 TEMPO 1900/1908 2500 BKN008 PROB40 1908/1910 BKN014 ESNU AMD 190122Z 1901/1909 05005KT 9999 BKN012 PROB40 1901/1906 4000 -SN BR OVC003 PROB40 1906/1909 4000 -SN BR OVC009 ESSV   ENAN 1900/1924 20008KT CAVOK ENAT   ENHF 182300Z 1900/1909 VRB05KT 9999 SCT050 ENDU 1900/1924 VRB05KT CAVOK ENBO 1900/1924 09015KT 9999 BKN040 TEMPO 1900/1903 4000 -SN VV020 ENEV   ENBR 1900/1924 15005KT 9999 SCT020 PROB30 1900/1908 2000 BCFG BKN002 ENFL   ENGM 1900/1924 02005KT 8000 -SN SCT008 BKN015 TEMPO 1900/1915 4000 -SN BKN008 ENHD   ENCN   ENTC 1900/1924 18006KT CAVOK ENFB   ENSB 1900/1924 12008KT 9999 FEW010 BKN020 TEMPO 1918/1924 2000 SHSN VV010 ENNK   ENRO   ENRY 1900/1924 35005KT 6000 FEW003 BKN015 TEMPO 1900/1905 2000 BR BKN004 TEMPO 1905/1910 4000 -SN BKN008 BECMG 1912/1914 06010KT ENZV 1900/1924 12005KT 9999 FEW020 PROB40 1900/1907 2000 BCFG BKN002 ENVA 1900/1924 10005KT CAVOK ENAL   EFET   EFTP 182334Z 1900/2000 01002KT 9999 FEW010 PROB30 TEMPO 1900/1906 3000 BR BKN003 EFTU 182329Z 1900/1924 06004KT 5000 OVC004 BECMG 1900/1902 8000 NSC TEMPO 1902/1908 4000 BR BKN005 BIAR 182248Z 1900/1924 18005KT 9999 SCT040 OVC055 TX06/1911Z TNM04/1900Z BECMG 1900/1903 14020G30KT 5000 SNRA OVC030 PROB40 TEMPO 1900/1909 16030G45KT BECMG 1903/1906 9999 NSW SCT025 BKN035 BECMG 1918/1921 20015KT BIEG 182248Z 1900/1924 12015KT 9999 SCT030 BKN050 TX07/1914Z TNM03/1900Z BECMG 1900/1903 13025G35KT 5000 SN OVC030 BECMG 1903/1906 12038G50KT 9999 RA BECMG 1909/1912 14025G35KT NSW BECMG 1921/1924 18015KT BKN030 BIKF 182248Z 1900/1924 12040G53KT 7000 RADZ BKN012 OVC020 TX06/1904Z TN03/1924Z BECMG 1900/1903 13025KT 9999 RA BECMG 1903/1906 16015KT BECMG 1906/1909 15025KT BECMG 1909/1912 15030G40KT 9999 BKN020 TEMPO 1909/1924 5000 SHRA BKN010CB BECMG 1921/1924 21030G40KT BIRK 182248Z 1900/1924 12035G50KT 9999 RA BKN015 OVC025 TX07/1905Z TN03/1924Z BECMG 1901/1903 14025G35KT 9999 BECMG 1904/1907 15015KT NSW BECMG 1908/1911 15025G35KT TEMPO 1912/1924 6000 SHRA BKN015CB BECMG 1921/1924 21025G35KT BGJN   BGSF   BGKK   BGBW   BGGH   BGTL   BGSS  

RocketRoute WX - rrwx.com weather for pilots